Startpagina
METAR-TAF:

METAR-TAF

Vliegvelden :

Puerto Limón, Costa Rica

breedte: 10-00N, lengte: 083-03W, hoogte: 5 m

Actueel weer

Dit bericht is 51 minuten geleden gemaakt, om 12:00 UTC
Wind 5 kt uit het westzuidwesten
Temperatuur 22°C
Vochtigheid 94%
Druk 1014 hPa
Zicht 10 km of meer
geen wolken onder 1500 m en geen cumulonimbus

METAR: MRLM 211200Z 25005KT CAVOK 22/21 A2995

Tijdstip: 06:51 (12:51 UTC)

Verwachting

Dit bericht is 1 uur en het 51 minuten geleden gemaakt, om 11:00 UTC
Verwachting geldig van 21 om 12 UTC tot 22 om 12 UTC
Wind 3 kt uit het westzuidwesten
Zicht 10 km of meer
Weinig wolken op 2000 ft
Verspreide wolken op 12000 ft
Wijzigt naar
van 21 om 14 UTC tot 21 om 16 UTC
Wind 7 kt uit het noordoosten
Wijzigt naar
van 22 om 00 UTC tot 22 om 02 UTC
Wind 3 kt uit het westzuidwesten

TAF: MRLM 211100Z 2112/2212 25003KT 9999 FEW020 SCT120 TX30/2118Z TN23/2112Z BECMG 2114/2116 04007KT BECMG 2200/2202 24003KT

Waarnemingen en weersverwachtingen van meer dan 4000 vliegvelden (METAR en TAF).

De beschikbare stations zijn de gele en rode punten op de kaart.

Ga met uw muis naar het station om de naam te zien.

Klik dan om waarnemingen en weersverwachtingen te zien.

kaart wijzigen: klik op de groene knoppen met een zwart kruis om in te zoomen, op de groene knop met een streepje om uit te zoomen of op de groene pijlen voor aangrenzende kaarten.


METAR-TAF: